createdAt,value
2019-02-11T00:00:42.068Z,8.71
2019-02-11T00:05:46.279Z,8.70
2019-02-11T00:11:04.437Z,8.72
2019-02-11T00:16:27.525Z,8.78
2019-02-11T00:21:51.048Z,8.72
2019-02-11T00:27:14.143Z,7.02
2019-02-11T00:32:37.470Z,8.81
2019-02-11T00:37:41.350Z,8.60
2019-02-11T00:42:45.261Z,8.83
2019-02-11T00:48:08.727Z,8.77
2019-02-11T00:53:13.430Z,8.82
2019-02-11T00:58:17.230Z,8.74
2019-02-11T01:03:40.695Z,8.77
2019-02-11T01:14:46.888Z,8.84
2019-02-11T01:19:50.438Z,8.80
2019-02-11T01:25:13.962Z,8.80
2019-02-11T01:30:37.530Z,7.05
2019-02-11T01:35:41.195Z,6.60
2019-02-11T01:41:04.634Z,8.85
2019-02-11T01:46:11.283Z,8.88
2019-02-11T01:51:35.044Z,8.88
2019-02-11T01:56:58.397Z,8.94
2019-02-11T02:02:21.991Z,6.60
2019-02-11T02:07:45.089Z,8.96
2019-02-11T02:13:00.629Z,8.99
2019-02-11T02:18:23.621Z,6.36
2019-02-11T02:23:46.742Z,7.79
2019-02-11T02:29:10.348Z,8.00
2019-02-11T02:34:13.967Z,7.92
2019-02-11T02:39:37.700Z,7.91
2019-02-11T02:45:01.081Z,8.01
2019-02-11T02:50:05.807Z,7.96
2019-02-11T02:55:29.156Z,8.08
2019-02-11T03:00:52.397Z,6.58
2019-02-11T03:06:15.396Z,8.08
2019-02-11T03:11:31.747Z,8.42
2019-02-11T03:16:54.996Z,8.25
2019-02-11T03:21:58.535Z,8.35
2019-02-11T03:27:22.279Z,8.28
2019-02-11T03:32:45.411Z,8.36
2019-02-11T03:38:08.481Z,8.33
2019-02-11T03:43:13.221Z,8.49
2019-02-11T03:48:36.389Z,8.48
2019-02-11T03:54:00.384Z,8.46
2019-02-11T03:59:23.517Z,8.45
2019-02-11T04:04:46.515Z,8.48
2019-02-11T04:09:50.683Z,8.36
2019-02-11T04:15:07.779Z,8.44
2019-02-11T04:20:31.252Z,8.50
2019-02-11T04:25:54.609Z,8.59
2019-02-11T04:31:17.976Z,8.31
2019-02-11T04:36:41.084Z,7.27
2019-02-11T04:42:04.237Z,8.71
2019-02-11T04:47:27.584Z,8.70
2019-02-11T04:52:50.520Z,8.67
2019-02-11T04:58:13.344Z,8.69
2019-02-11T05:03:37.351Z,8.65
2019-02-11T05:14:29.108Z,8.65
2019-02-11T05:19:52.446Z,8.72
2019-02-11T05:25:15.883Z,8.54
2019-02-11T05:30:39.301Z,7.96
2019-02-11T05:36:02.769Z,8.57
2019-02-11T05:41:26.346Z,8.61
2019-02-11T05:46:49.817Z,8.57
2019-02-11T05:52:13.554Z,8.60
2019-02-11T05:57:17.817Z,8.60
2019-02-11T06:02:23.266Z,8.53
2019-02-11T06:07:27.159Z,8.44
2019-02-11T06:12:33.439Z,8.45
2019-02-11T06:17:39.677Z,8.46
2019-02-11T06:22:43.537Z,8.49
2019-02-11T06:27:47.648Z,8.54
2019-02-11T06:32:52.128Z,8.47
2019-02-11T06:37:56.451Z,8.59
2019-02-11T06:42:59.937Z,8.58
2019-02-11T06:48:04.313Z,8.48
2019-02-11T06:53:10.046Z,8.46
2019-02-11T06:58:14.519Z,8.55
2019-02-11T07:03:18.035Z,8.62
2019-02-11T07:08:23.632Z,8.57
2019-02-11T07:13:28.316Z,8.52
2019-02-11T07:18:33.300Z,8.43
2019-02-11T07:23:37.669Z,8.42
2019-02-11T07:28:41.691Z,8.45
2019-02-11T07:33:45.759Z,8.49
2019-02-11T07:38:49.527Z,8.49
2019-02-11T07:44:08.866Z,8.60
2019-02-11T07:49:12.386Z,8.66
2019-02-11T07:54:16.242Z,8.72
2019-02-11T07:59:20.034Z,8.59
2019-02-11T08:04:24.326Z,8.60
2019-02-11T08:09:28.125Z,8.49
2019-02-11T08:14:31.787Z,8.61
2019-02-11T08:19:35.795Z,8.67
2019-02-11T08:24:39.864Z,8.57
2019-02-11T08:29:43.560Z,8.68
2019-02-11T08:34:48.408Z,8.86
2019-02-11T08:39:54.346Z,9.32
2019-02-11T08:44:58.377Z,9.35
2019-02-11T08:50:03.895Z,9.51
2019-02-11T08:55:08.492Z,9.46
2019-02-11T09:00:13.034Z,9.53
2019-02-11T09:05:17.995Z,9.41
2019-02-11T09:10:22.291Z,9.46
2019-02-11T09:15:26.349Z,9.41
2019-02-11T09:20:30.279Z,9.65
2019-02-11T09:25:34.454Z,9.58
2019-02-11T09:30:39.873Z,9.61
2019-02-11T09:35:43.793Z,9.87
2019-02-11T09:40:48.025Z,9.99
2019-02-11T09:45:52.513Z,10.04
2019-02-11T09:50:56.821Z,10.43
2019-02-11T09:56:02.925Z,10.29
2019-02-11T10:01:06.572Z,10.47
2019-02-11T10:06:10.591Z,10.54
2019-02-11T10:11:14.670Z,10.59
2019-02-11T10:16:19.060Z,10.77
2019-02-11T10:21:24.291Z,10.89
2019-02-11T10:26:28.622Z,10.95
2019-02-11T10:31:32.231Z,10.75
2019-02-11T10:36:36.220Z,10.00
2019-02-11T10:41:40.425Z,8.44
2019-02-11T10:46:44.456Z,8.19
2019-02-11T10:51:51.027Z,8.44
2019-02-11T10:56:57.127Z,8.73
2019-02-11T11:02:01.014Z,9.21
2019-02-11T11:07:05.530Z,9.58
2019-02-11T11:12:09.413Z,9.76
2019-02-11T11:17:13.859Z,10.01
2019-02-11T11:22:18.048Z,10.14
2019-02-11T11:27:24.118Z,9.99
2019-02-11T11:32:27.986Z,9.93
2019-02-11T11:37:31.817Z,10.02
2019-02-11T11:42:34.893Z,10.30
2019-02-11T11:47:38.959Z,10.54
2019-02-11T11:52:42.976Z,10.85
2019-02-11T11:58:06.284Z,10.21
2019-02-11T12:03:29.792Z,10.08
2019-02-11T12:08:54.167Z,10.49
2019-02-11T12:14:10.799Z,7.30
2019-02-11T12:19:35.644Z,10.30
2019-02-11T12:25:00.912Z,10.50
2019-02-11T12:30:25.338Z,10.51
2019-02-11T12:35:48.629Z,10.43
2019-02-11T12:41:12.505Z,10.10
2019-02-11T12:46:16.486Z,8.62
2019-02-11T12:51:39.956Z,10.55
2019-02-11T12:57:02.225Z,10.80
2019-02-11T13:02:25.471Z,11.00
2019-02-11T13:07:48.731Z,8.82
2019-02-11T13:13:06.834Z,10.89
2019-02-11T13:18:30.249Z,10.92
2019-02-11T13:23:55.602Z,10.81
2019-02-11T13:29:18.755Z,10.93
2019-02-11T13:34:41.983Z,9.45
2019-02-11T13:40:07.151Z,11.44
2019-02-11T13:45:30.212Z,11.34
2019-02-11T13:50:54.190Z,9.93
2019-02-11T13:56:17.255Z,10.65
2019-02-11T14:01:40.992Z,10.67
2019-02-11T14:06:44.894Z,10.33
2019-02-11T14:12:01.228Z,10.95
2019-02-11T14:17:24.441Z,10.41
2019-02-11T14:22:47.598Z,10.44
2019-02-11T14:40:10.536Z,10.53
2019-02-11T14:45:33.987Z,10.54
2019-02-11T14:56:50.899Z,10.04
2019-02-11T15:02:13.985Z,10.00
2019-02-11T15:13:48.513Z,9.64
2019-02-11T15:24:50.186Z,9.51
2019-02-11T15:35:56.219Z,7.69
2019-02-11T15:41:06.987Z,9.52
2019-02-11T15:47:13.231Z,9.51
2019-02-11T15:52:35.681Z,9.37
2019-02-11T16:03:47.863Z,8.44
2019-02-11T16:09:10.037Z,8.94
2019-02-11T16:14:25.190Z,8.75
2019-02-11T16:19:47.535Z,8.69
2019-02-11T16:25:10.372Z,7.87
2019-02-11T16:41:33.249Z,8.74
2019-02-11T16:47:17.398Z,8.79
2019-02-11T16:52:39.630Z,8.68
2019-02-11T16:58:01.858Z,8.60
2019-02-11T17:03:24.075Z,8.51
2019-02-11T17:08:47.388Z,8.65
2019-02-11T17:14:03.036Z,7.98
2019-02-11T17:19:25.246Z,8.62
2019-02-11T17:24:47.525Z,8.54
2019-02-11T17:30:12.412Z,8.39
2019-02-11T17:35:34.685Z,6.96
2019-02-11T18:04:15.710Z,8.35
2019-02-11T18:09:21.278Z,7.99
2019-02-11T18:14:36.540Z,8.69
2019-02-11T18:20:20.012Z,8.70
2019-02-11T18:31:33.807Z,7.36
2019-02-11T18:36:56.055Z,7.23
2019-02-11T18:42:18.491Z,8.20
2019-02-11T18:47:21.389Z,6.60
2019-02-11T18:52:43.569Z,7.91
2019-02-11T18:58:05.776Z,7.82
2019-02-11T19:03:28.217Z,8.02
2019-02-11T19:08:50.407Z,8.17
2019-02-11T19:14:05.849Z,8.15
2019-02-11T19:19:28.017Z,8.28
2019-02-11T19:24:50.228Z,7.54
2019-02-11T19:30:15.483Z,8.14
2019-02-11T19:35:37.673Z,8.00
2019-02-11T19:41:00.646Z,6.47
2019-02-11T19:46:22.862Z,5.72
2019-02-11T19:51:45.089Z,7.89
2019-02-11T19:57:07.350Z,7.95
2019-02-11T20:02:29.578Z,8.03
2019-02-11T20:07:51.795Z,7.28
2019-02-11T20:13:07.084Z,7.98
2019-02-11T20:18:29.352Z,8.05
2019-02-11T20:23:51.597Z,8.07
2019-02-11T20:29:13.902Z,8.18
2019-02-11T20:34:36.069Z,8.17
2019-02-11T20:40:03.550Z,8.17
2019-02-11T20:45:24.175Z,8.17
2019-02-11T20:56:37.134Z,8.17
2019-02-11T21:02:30.131Z,7.46
2019-02-11T21:13:24.182Z,6.74
2019-02-11T21:23:56.878Z,8.24
2019-02-11T21:40:41.259Z,8.24
2019-02-11T21:46:03.828Z,7.29
2019-02-11T21:51:26.284Z,8.31
2019-02-11T21:56:48.500Z,8.24
2019-02-11T22:02:10.786Z,8.16
2019-02-11T22:07:33.428Z,8.24
2019-02-11T22:12:49.215Z,8.22
2019-02-11T22:18:11.429Z,8.25
2019-02-11T22:23:33.625Z,7.56
2019-02-11T22:28:55.909Z,8.23
2019-02-11T22:34:18.149Z,8.23
2019-02-11T22:39:40.368Z,8.30
2019-02-11T22:51:07.398Z,8.28
2019-02-11T22:56:29.603Z,8.28
2019-02-11T23:08:14.088Z,8.32
2019-02-11T23:13:07.227Z,8.10
2019-02-11T23:18:29.411Z,7.26
2019-02-11T23:23:51.611Z,8.17
2019-02-11T23:29:13.800Z,8.16
2019-02-11T23:34:35.992Z,8.01
2019-02-11T23:39:58.188Z,6.62
2019-02-11T23:45:20.365Z,7.99
2019-02-11T23:50:42.551Z,7.96
2019-02-11T23:56:04.782Z,7.72
